Time;durP1;ratioP1;P1;durP2;ratioP2;P2;SDS_P1;SDS_P2;PMS_P1;PMS_P2;Temp;Humidity;BMP_temperature;BMP_pressure;BME280_temperature;BME280_humidity;BME280_pressure;Samples;Min_cycle;Max_cycle;Signal;HPM_P1;HPM_P2
2021/12/04 00:01:24;;;;;;;7.27;4.03;;;9.20;80.00;;;;;;5018215;28;20287;-77
2021/12/04 00:03:53;;;;;;;7.23;4.03;;;9.20;80.00;;;;;;5023537;28;20236;-75
2021/12/04 00:06:26;;;;;;;6.70;4.20;;;9.20;80.00;;;;;;5022894;28;20746;-75
2021/12/04 00:08:56;;;;;;;9.23;4.83;;;9.20;80.80;;;;;;5024030;28;20284;-77
2021/12/04 00:11:25;;;;;;;11.03;4.73;;;9.10;80.00;;;;;;5019992;28;20330;-78
2021/12/04 00:13:53;;;;;;;14.37;5.20;;;9.10;80.20;;;;;;5021558;28;20203;-77
2021/12/04 00:16:22;;;;;;;7.60;3.73;;;9.10;80.30;;;;;;5022363;28;20195;-78
2021/12/04 00:18:50;;;;;;;8.00;4.27;;;9.10;80.60;;;;;;5027885;28;20263;-77
2021/12/04 00:21:19;;;;;;;5.87;3.90;;;9.10;80.50;;;;;;5026026;28;20215;-78
2021/12/04 00:23:49;;;;;;;6.47;3.80;;;9.10;80.50;;;;;;5023883;28;20206;-77
2021/12/04 00:26:17;;;;;;;8.27;4.53;;;9.00;80.60;;;;;;5022637;28;20191;-79
2021/12/04 00:28:45;;;;;;;7.93;4.13;;;9.00;80.80;;;;;;5024519;28;20210;-78
2021/12/04 00:31:14;;;;;;;6.47;3.60;;;9.00;80.90;;;;;;5026092;28;20192;-79
2021/12/04 00:33:44;;;;;;;8.63;3.80;;;8.90;80.90;;;;;;5019157;28;20834;-77
2021/12/04 00:36:25;;;;;;;7.57;3.63;;;8.90;81.90;;;;;;5022228;28;20200;-78
2021/12/04 00:50:11;;;;;;;10.53;5.23;;;8.90;81.40;;;;;;5030913;28;20221;-78
2021/12/04 00:52:39;;;;;;;8.50;4.73;;;8.90;81.40;;;;;;5029225;28;20200;-78
2021/12/04 00:55:09;;;;;;;7.67;3.93;;;8.90;81.40;;;;;;5028215;28;20229;-78
2021/12/04 00:57:38;;;;;;;8.40;4.00;;;8.90;81.30;;;;;;5030150;28;20192;-79
2021/12/04 01:00:08;;;;;;;7.30;3.97;;;8.90;81.30;;;;;;5025893;28;20321;-77
2021/12/04 01:02:36;;;;;;;7.37;4.03;;;8.90;81.20;;;;;;5025785;28;20238;-78
2021/12/04 01:05:05;;;;;;;7.97;4.50;;;8.90;81.50;;;;;;5023499;28;20238;-77
2021/12/04 01:07:34;;;;;;;8.50;4.57;;;8.80;81.40;;;;;;5027739;28;20200;-77
2021/12/04 01:10:04;;;;;;;7.43;4.27;;;8.80;81.30;;;;;;5026283;28;20198;-77
2021/12/04 01:12:34;;;;;;;7.93;4.67;;;8.80;81.30;;;;;;5019872;28;20608;-77
2021/12/04 01:15:02;;;;;;;8.57;4.63;;;8.80;81.40;;;;;;5019817;28;20206;-77
2021/12/04 01:17:30;;;;;;;8.90;5.50;;;8.80;81.30;;;;;;5027805;28;20210;-77
2021/12/04 01:19:59;;;;;;;9.30;4.80;;;8.80;81.50;;;;;;5019902;28;20215;-78
2021/12/04 01:22:27;;;;;;;7.63;4.67;;;8.80;82.20;;;;;;5027754;28;20207;-78
2021/12/04 01:24:55;;;;;;;11.03;4.60;;;8.90;81.30;;;;;;5028623;28;20334;-77
2021/12/04 01:27:24;;;;;;;8.90;4.80;;;8.80;81.30;;;;;;5026844;28;20203;-78
2021/12/04 01:29:53;;;;;;;8.67;5.20;;;8.80;81.30;;;;;;5032279;28;20256;-76
2021/12/04 01:32:21;;;;;;;8.60;4.73;;;8.80;81.30;;;;;;5025288;28;20214;-76
2021/12/04 01:34:50;;;;;;;11.30;5.43;;;8.70;81.00;;;;;;5024310;28;20210;-77
2021/12/04 01:37:18;;;;;;;7.83;4.87;;;8.70;81.70;;;;;;5026596;28;20206;-78
2021/12/04 01:39:46;;;;;;;10.17;5.37;;;8.70;80.90;;;;;;5027441;28;20192;-79
2021/12/04 01:42:18;;;;;;;8.67;5.30;;;8.70;80.80;;;;;;5029550;28;20207;-77
2021/12/04 01:44:47;;;;;;;9.40;5.33;;;8.70;80.70;;;;;;5026751;28;20203;-77
2021/12/04 01:47:20;;;;;;;9.70;5.47;;;8.70;80.70;;;;;;5028098;28;20199;-77
2021/12/04 01:49:49;;;;;;;10.93;5.27;;;8.70;80.80;;;;;;5024783;28;20203;-78
2021/12/04 01:52:18;;;;;;;9.97;5.27;;;8.70;80.80;;;;;;5024765;28;20658;-79
2021/12/04 01:54:47;;;;;;;9.70;5.17;;;8.70;80.70;;;;;;5029118;28;20209;-79
2021/12/04 01:57:16;;;;;;;8.20;5.10;;;8.70;80.80;;;;;;5031567;28;20203;-78
2021/12/04 01:59:45;;;;;;;7.90;4.73;;;8.70;80.80;;;;;;5024535;28;20192;-79
2021/12/04 02:02:13;;;;;;;10.57;5.10;;;8.70;80.80;;;;;;5021916;28;20599;-79
2021/12/04 02:04:43;;;;;;;9.30;4.70;;;8.70;80.60;;;;;;5025315;28;20226;-78
2021/12/04 02:07:12;;;;;;;10.83;5.47;;;8.70;80.60;;;;;;5025580;28;20200;-79
2021/12/04 02:09:40;;;;;;;11.13;5.03;;;8.60;80.50;;;;;;5026010;28;20249;-79
2021/12/04 02:12:10;;;;;;;8.90;5.00;;;8.70;80.60;;;;;;5023562;28;20226;-80
2021/12/04 02:14:41;;;;;;;9.43;4.83;;;8.70;80.60;;;;;;5021115;28;20258;-81
2021/12/04 02:17:10;;;;;;;8.87;4.87;;;8.60;80.40;;;;;;5025386;28;20203;-76
2021/12/04 02:19:39;;;;;;;7.37;4.50;;;8.60;80.50;;;;;;5023833;28;20370;-82
2021/12/04 02:22:09;;;;;;;9.37;5.23;;;8.60;80.30;;;;;;5028898;28;20217;-80
2021/12/04 02:24:37;;;;;;;8.93;4.67;;;8.60;80.20;;;;;;5033397;28;20206;-80
2021/12/04 02:27:06;;;;;;;8.07;4.60;;;8.60;80.10;;;;;;5025733;28;20207;-80
2021/12/04 02:29:34;;;;;;;8.50;4.97;;;8.60;80.10;;;;;;5023607;28;20209;-80
2021/12/04 02:32:03;;;;;;;8.57;4.80;;;8.60;80.00;;;;;;5024428;28;20284;-79
2021/12/04 02:34:32;;;;;;;7.57;4.40;;;8.70;79.90;;;;;;5018613;28;20202;-82
2021/12/04 02:37:00;;;;;;;10.23;4.63;;;8.70;79.80;;;;;;5024863;28;21031;-80
2021/12/04 02:39:34;;;;;;;9.03;4.80;;;8.60;79.70;;;;;;5024346;28;20203;-80
2021/12/04 02:42:06;;;;;;;9.20;4.23;;;8.60;79.60;;;;;;5022874;28;20210;-82
2021/12/04 02:44:36;;;;;;;9.40;5.63;;;8.70;79.70;;;;;;5029756;28;20206;-81
2021/12/04 02:47:05;;;;;;;11.37;5.03;;;8.70;79.60;;;;;;5024530;28;20199;-81
2021/12/04 02:49:33;;;;;;;8.80;4.63;;;8.70;79.40;;;;;;5025012;28;20841;-80
2021/12/04 02:52:03;;;;;;;8.70;4.80;;;8.60;79.40;;;;;;5025317;28;20669;-81
2021/12/04 02:54:33;;;;;;;11.87;5.33;;;8.70;79.40;;;;;;5030525;28;20209;-81
2021/12/04 02:57:02;;;;;;;8.63;4.70;;;8.70;79.40;;;;;;5031699;28;20186;-81
2021/12/04 02:59:32;;;;;;;9.07;4.83;;;8.70;79.20;;;;;;5019970;28;20202;-81
2021/12/04 03:02:01;;;;;;;8.67;4.80;;;8.70;79.10;;;;;;5022128;28;20403;-78
2021/12/04 03:04:32;;;;;;;7.70;4.40;;;8.70;79.10;;;;;;5031620;28;20194;-80
2021/12/04 03:07:01;;;;;;;7.57;3.90;;;8.60;79.10;;;;;;5023012;28;20226;-81
2021/12/04 03:09:29;;;;;;;7.87;4.30;;;8.60;79.10;;;;;;5022124;28;20206;-79
2021/12/04 03:12:02;;;;;;;7.93;4.50;;;8.60;79.00;;;;;;5020362;28;20286;-80
2021/12/04 03:14:31;;;;;;;9.23;4.10;;;8.60;78.90;;;;;;5026320;28;20210;-80
2021/12/04 03:16:59;;;;;;;8.13;4.70;;;8.60;78.90;;;;;;5025890;28;20214;-79
2021/12/04 03:19:28;;;;;;;7.60;4.13;;;8.60;78.90;;;;;;5021783;28;20362;-80
2021/12/04 03:21:56;;;;;;;8.60;4.37;;;8.50;79.10;;;;;;5021960;28;20223;-78
2021/12/04 03:24:25;;;;;;;8.07;4.47;;;8.50;79.10;;;;;;5030411;28;20234;-79
2021/12/04 03:26:55;;;;;;;8.17;4.40;;;8.50;79.10;;;;;;5023096;28;20198;-81
2021/12/04 03:29:27;;;;;;;8.40;4.17;;;8.40;79.10;;;;;;5025280;28;20200;-80
2021/12/04 03:32:17;;;;;;;7.53;4.27;;;8.40;79.20;;;;;;5022339;28;20717;-80
2021/12/04 03:40:37;;;;;;;6.73;3.83;;;8.40;79.40;;;;;;5016954;28;20194;-79
2021/12/04 03:43:08;;;;;;;10.67;4.10;;;8.40;79.40;;;;;;5029527;28;20199;-79
2021/12/04 03:45:41;;;;;;;6.83;3.83;;;8.40;79.40;;;;;;5024101;28;20202;-79
2021/12/04 03:48:13;;;;;;;7.67;4.17;;;8.30;79.30;;;;;;5024646;28;20189;-79
2021/12/04 03:50:41;;;;;;;7.20;4.23;;;8.30;79.30;;;;;;5022535;28;20213;-77
2021/12/04 03:53:13;;;;;;;6.77;3.93;;;8.20;79.80;;;;;;5023064;28;20205;-79
2021/12/04 03:55:41;;;;;;;8.30;4.40;;;8.30;79.80;;;;;;5028141;28;20197;-78
2021/12/04 03:58:09;;;;;;;6.43;4.27;;;8.30;80.00;;;;;;5020436;28;20935;-78
2021/12/04 04:00:39;;;;;;;8.60;4.13;;;8.20;80.00;;;;;;5023411;28;20206;-80
2021/12/04 04:03:08;;;;;;;8.00;4.37;;;8.20;80.00;;;;;;5023631;28;20332;-81
2021/12/04 04:05:36;;;;;;;9.90;4.30;;;8.20;80.10;;;;;;5025341;28;20668;-79
2021/12/04 04:08:05;;;;;;;11.63;4.30;;;8.20;80.20;;;;;;5024240;28;20198;-80
2021/12/04 04:10:33;;;;;;;9.33;4.77;;;8.20;80.10;;;;;;5023319;28;20202;-78
2021/12/04 04:13:02;;;;;;;10.77;5.47;;;8.20;80.20;;;;;;5020156;28;20208;-80
2021/12/04 04:15:30;;;;;;;9.50;4.57;;;8.30;80.30;;;;;;5020848;28;20210;-79
2021/12/04 04:18:00;;;;;;;9.93;4.53;;;8.30;80.20;;;;;;5025392;28;20199;-78
2021/12/04 04:20:28;;;;;;;9.13;5.13;;;8.20;80.00;;;;;;5021748;28;20217;-76
2021/12/04 04:22:57;;;;;;;9.87;5.53;;;8.20;80.00;;;;;;5021011;28;20229;-77
2021/12/04 04:25:25;;;;;;;8.70;4.43;;;8.20;80.10;;;;;;5022858;28;20194;-78
2021/12/04 04:27:53;;;;;;;10.57;5.30;;;8.20;80.00;;;;;;5024156;28;20297;-79
2021/12/04 04:30:22;;;;;;;9.07;4.90;;;8.10;79.80;;;;;;5031508;28;20201;-78
2021/12/04 04:32:51;;;;;;;9.07;5.23;;;8.10;80.00;;;;;;5023232;28;20207;-78
2021/12/04 04:35:23;;;;;;;11.10;5.80;;;8.20;80.20;;;;;;5023145;28;20217;-78
2021/12/04 04:37:59;;;;;;;13.10;6.07;;;8.20;80.20;;;;;;5025335;28;20280;-79
2021/12/04 05:00:09;;;;;;;13.70;6.40;;;8.00;79.90;;;;;;5018606;28;20198;-78
2021/12/04 05:10:13;;;;;;;10.03;5.70;;;8.00;80.20;;;;;;5022308;28;20227;-80
2021/12/04 05:11:09;;;;;;;10.97;6.00;;;7.80;80.80;;;;;;4981663;28;20281;-80
2021/12/04 05:13:38;;;;;;;9.73;5.03;;;7.80;80.90;;;;;;5021651;28;20459;-77
2021/12/04 05:16:14;;;;;;;12.03;5.70;;;7.80;80.90;;;;;;5024216;28;20193;-79
2021/12/04 05:18:51;;;;;;;8.70;5.10;;;7.70;81.00;;;;;;5029455;28;20199;-79
2021/12/04 05:21:20;;;;;;;8.67;5.00;;;7.70;81.10;;;;;;5018700;28;20196;-78
2021/12/04 05:23:51;;;;;;;11.53;5.43;;;7.60;81.10;;;;;;5017612;28;20226;-77
2021/12/04 05:26:24;;;;;;;12.73;6.13;;;7.60;81.00;;;;;;5024952;28;20377;-79
2021/12/04 05:28:53;;;;;;;11.63;5.50;;;7.60;81.20;;;;;;5030103;28;20202;-79
2021/12/04 05:31:22;;;;;;;8.93;5.23;;;7.70;81.30;;;;;;5035819;28;20217;-79
2021/12/04 05:33:51;;;;;;;12.77;5.43;;;7.60;81.10;;;;;;5028540;28;20202;-78
2021/12/04 05:36:20;;;;;;;10.53;4.83;;;7.60;81.20;;;;;;5022354;28;20272;-79
2021/12/04 05:38:50;;;;;;;10.50;5.27;;;7.60;81.30;;;;;;5029837;28;20236;-79
2021/12/04 05:41:18;;;;;;;11.63;5.17;;;7.60;82.20;;;;;;5026031;28;20564;-78
2021/12/04 05:43:47;;;;;;;9.37;5.53;;;7.50;81.30;;;;;;5027934;28;20221;-78
2021/12/04 05:46:17;;;;;;;12.63;6.27;;;7.50;81.60;;;;;;5025865;28;20202;-79
2021/12/04 05:48:50;;;;;;;11.27;5.70;;;7.40;81.60;;;;;;5029337;28;20293;-79
2021/12/04 05:51:45;;;;;;;11.13;5.73;;;7.40;81.80;;;;;;5022851;28;20689;-81
2021/12/04 05:57:03;;;;;;;12.43;6.43;;;7.40;81.80;;;;;;4998415;28;20205;-79
2021/12/04 05:59:32;;;;;;;12.87;6.40;;;7.40;81.90;;;;;;5025686;28;20198;-78
2021/12/04 06:02:03;;;;;;;12.37;6.00;;;7.40;81.90;;;;;;5025211;28;20252;-79
2021/12/04 06:04:31;;;;;;;12.43;6.50;;;7.40;82.00;;;;;;5026346;28;20204;-81
2021/12/04 06:06:59;;;;;;;13.33;6.30;;;7.40;81.80;;;;;;5031413;28;20263;-79
2021/12/04 06:09:29;;;;;;;13.50;6.67;;;7.40;81.80;;;;;;5033286;28;20220;-77
2021/12/04 06:11:58;;;;;;;14.07;6.87;;;7.40;81.80;;;;;;5025337;28;20255;-79
2021/12/04 06:14:26;;;;;;;11.87;6.00;;;7.40;81.90;;;;;;5029098;28;20736;-78
2021/12/04 06:16:54;;;;;;;13.70;5.70;;;7.40;81.80;;;;;;5025176;28;20197;-78
2021/12/04 06:22:37;;;;;;;11.03;6.10;;;7.50;81.90;;;;;;5025847;28;20252;-81
2021/12/04 06:25:01;;;;;;;14.17;6.20;;;7.60;81.60;;;;;;5030893;28;20204;-80
2021/12/04 06:27:30;;;;;;;10.63;6.40;;;7.70;81.50;;;;;;5025853;28;20196;-79
2021/12/04 06:29:58;;;;;;;13.70;6.33;;;7.70;81.20;;;;;;5030978;28;20903;-79
2021/12/04 06:32:27;;;;;;;12.23;6.33;;;7.70;81.20;;;;;;5038102;28;20569;-81
2021/12/04 06:34:55;;;;;;;14.23;7.53;;;7.70;81.10;;;;;;5022958;28;20198;-79
2021/12/04 06:37:23;;;;;;;12.13;6.40;;;7.80;81.10;;;;;;5027234;28;20819;-79
2021/12/04 06:39:51;;;;;;;10.33;5.57;;;7.80;80.60;;;;;;5025286;28;20814;-81
2021/12/04 06:42:21;;;;;;;13.63;6.37;;;7.80;80.50;;;;;;5031452;28;20214;-79
2021/12/04 06:44:52;;;;;;;11.97;6.67;;;7.80;80.30;;;;;;5025056;28;20218;-78
2021/12/04 06:47:20;;;;;;;11.90;6.20;;;7.80;80.30;;;;;;5034399;28;20197;-80
2021/12/04 06:49:50;;;;;;;11.23;6.13;;;7.80;80.30;;;;;;5032781;28;20783;-80
2021/12/04 06:52:22;;;;;;;11.93;6.43;;;7.80;80.30;;;;;;5032841;28;20232;-79
2021/12/04 06:54:54;;;;;;;11.00;6.13;;;7.80;80.00;;;;;;5032572;28;20183;-80
2021/12/04 06:57:24;;;;;;;12.40;6.53;;;7.80;80.10;;;;;;5023039;28;20598;-79
2021/12/04 06:59:55;;;;;;;13.23;7.37;;;7.80;80.00;;;;;;5021130;28;20208;-78
2021/12/04 07:02:23;;;;;;;10.43;6.07;;;7.80;80.10;;;;;;5017955;28;20224;-81
2021/12/04 07:04:52;;;;;;;12.33;6.30;;;7.70;80.00;;;;;;5025067;28;20216;-79
2021/12/04 07:07:20;;;;;;;11.83;6.20;;;7.70;80.30;;;;;;5028622;28;20207;-78
2021/12/04 07:09:48;;;;;;;10.33;6.53;;;7.80;80.20;;;;;;5025184;28;20209;-79
2021/12/04 07:12:17;;;;;;;11.03;6.37;;;7.70;80.30;;;;;;5025142;28;20233;-77
2021/12/04 07:14:46;;;;;;;11.53;5.67;;;7.70;80.40;;;;;;5021211;28;20598;-78
2021/12/04 07:17:15;;;;;;;12.07;6.17;;;7.70;80.50;;;;;;5024512;28;20676;-78
2021/12/04 07:19:43;;;;;;;12.70;5.87;;;7.70;80.50;;;;;;5024411;28;20643;-79
2021/12/04 07:22:12;;;;;;;13.40;6.30;;;7.70;80.40;;;;;;5022971;28;20878;-79
2021/12/04 07:24:40;;;;;;;11.43;5.90;;;7.70;80.30;;;;;;5023409;28;20218;-78
2021/12/04 07:27:08;;;;;;;10.00;5.83;;;7.70;80.60;;;;;;5025182;28;20205;-78
2021/12/04 07:29:37;;;;;;;13.93;6.20;;;7.70;80.90;;;;;;5024881;28;20201;-77
2021/12/04 07:32:08;;;;;;;11.73;6.20;;;7.70;81.10;;;;;;5031987;28;20197;-78
2021/12/04 07:34:36;;;;;;;11.73;6.40;;;7.70;81.10;;;;;;5030089;28;20183;-78
2021/12/04 07:37:05;;;;;;;14.27;7.77;;;7.60;81.20;;;;;;5027477;28;20200;-78
2021/12/04 07:39:33;;;;;;;14.50;7.70;;;7.70;81.30;;;;;;5024719;28;20204;-78
2021/12/04 07:42:01;;;;;;;9.17;5.70;;;7.70;81.30;;;;;;5026046;28;20201;-77
2021/12/04 07:44:29;;;;;;;11.97;6.67;;;7.70;81.60;;;;;;5024090;28;20218;-78
2021/12/04 07:46:58;;;;;;;11.27;5.60;;;7.70;81.60;;;;;;5030256;28;20205;-78
2021/12/04 07:49:28;;;;;;;13.70;6.13;;;7.70;81.50;;;;;;5024208;28;20599;-77
2021/12/04 07:51:56;;;;;;;9.90;5.50;;;7.70;81.20;;;;;;5025673;28;20225;-77
2021/12/04 07:54:24;;;;;;;8.53;4.57;;;7.70;81.20;;;;;;5023518;28;20234;-80
2021/12/04 07:56:52;;;;;;;13.63;5.73;;;7.70;80.90;;;;;;5025828;28;20705;-78
2021/12/04 07:59:21;;;;;;;8.87;5.10;;;7.70;80.90;;;;;;5024059;28;20222;-78
2021/12/04 08:01:49;;;;;;;7.63;4.63;;;7.80;80.80;;;;;;5024813;28;20241;-79
2021/12/04 08:04:18;;;;;;;8.03;4.43;;;7.70;80.30;;;;;;5022418;28;20846;-79
2021/12/04 08:06:48;;;;;;;9.23;4.53;;;7.80;80.50;;;;;;5025482;28;20741;-80
2021/12/04 08:09:17;;;;;;;8.40;4.67;;;7.70;80.20;;;;;;5028683;28;20786;-79
2021/12/04 08:11:46;;;;;;;11.20;5.30;;;7.80;80.30;;;;;;5024883;28;20211;-82
2021/12/04 08:14:14;;;;;;;16.27;5.00;;;7.70;80.20;;;;;;5028530;28;20209;-80
2021/12/04 08:16:42;;;;;;;9.20;5.17;;;7.70;80.10;;;;;;5024704;28;20201;-79
2021/12/04 08:19:11;;;;;;;9.37;4.80;;;7.70;80.20;;;;;;5024475;28;20566;-80
2021/12/04 08:21:39;;;;;;;10.33;5.57;;;7.60;80.30;;;;;;5022133;28;20208;-78
2021/12/04 08:24:09;;;;;;;10.13;5.60;;;7.60;81.00;;;;;;5033081;28;20222;-79
2021/12/04 08:26:39;;;;;;;12.60;5.63;;;7.50;80.60;;;;;;5023478;28;20205;-78
2021/12/04 08:29:08;;;;;;;12.03;6.27;;;7.40;80.60;;;;;;5025011;28;20252;-79
2021/12/04 08:31:37;;;;;;;11.00;6.07;;;7.40;80.70;;;;;;5025907;28;20216;-80
2021/12/04 08:34:05;;;;;;;10.80;6.50;;;7.40;80.90;;;;;;5042380;28;20196;-79
2021/12/04 08:36:34;;;;;;;10.40;5.37;;;7.40;81.00;;;;;;5024028;28;21776;-79
2021/12/04 08:39:04;;;;;;;10.87;5.77;;;7.40;80.80;;;;;;5024627;28;20227;-80
2021/12/04 08:41:34;;;;;;;10.40;6.40;;;7.30;80.70;;;;;;5025241;28;20197;-80
2021/12/04 08:44:02;;;;;;;11.43;6.27;;;7.30;81.10;;;;;;5028604;28;20209;-77
2021/12/04 08:46:31;;;;;;;12.30;6.07;;;7.30;81.20;;;;;;5030885;28;20214;-79
2021/12/04 08:49:00;;;;;;;11.00;5.30;;;7.30;80.80;;;;;;5029734;28;20906;-79
2021/12/04 08:51:32;;;;;;;13.27;6.27;;;7.30;80.80;;;;;;5028727;28;20194;-79
2021/12/04 08:54:00;;;;;;;9.90;5.27;;;7.30;80.60;;;;;;5031244;28;20227;-79
2021/12/04 08:56:29;;;;;;;11.93;6.27;;;7.30;80.70;;;;;;5026449;28;20201;-79
2021/12/04 08:59:01;;;;;;;13.33;5.77;;;7.30;80.80;;;;;;5031967;28;20202;-79
2021/12/04 09:01:36;;;;;;;9.73;5.53;;;7.30;80.80;;;;;;5027293;28;20194;-78
2021/12/04 09:04:07;;;;;;;13.17;6.40;;;7.30;80.20;;;;;;5031068;28;20204;-78
2021/12/04 09:06:38;;;;;;;13.23;6.77;;;7.40;80.30;;;;;;5030997;28;20190;-82
2021/12/04 09:09:08;;;;;;;13.07;7.07;;;7.40;80.40;;;;;;5036246;28;20198;-79
2021/12/04 09:11:39;;;;;;;14.17;7.20;;;7.40;80.20;;;;;;5027581;28;20206;-79
2021/12/04 09:14:10;;;;;;;14.40;6.93;;;7.50;81.10;;;;;;5027456;28;20191;-80
2021/12/04 09:16:39;;;;;;;18.93;8.03;;;7.50;80.00;;;;;;5028552;28;20204;-81
2021/12/04 09:19:08;;;;;;;12.93;6.87;;;7.50;79.50;;;;;;5029767;28;20201;-80
2021/12/04 09:21:39;;;;;;;15.00;6.87;;;7.60;79.60;;;;;;5027012;28;20288;-80
2021/12/04 09:24:11;;;;;;;15.50;7.67;;;7.60;79.60;;;;;;5025553;28;20211;-79
2021/12/04 09:26:46;;;;;;;15.53;7.47;;;7.70;79.70;;;;;;5033363;28;20352;-78
2021/12/04 10:00:22;;;;;;;12.53;6.33;;;7.70;77.00;;;;;;5076868;28;20190;-77
2021/12/04 10:14:57;;;;;;;10.30;5.93;;;7.70;77.70;;;;;;5068962;28;20254;-75
2021/12/04 10:20:31;;;;;;;16.03;7.43;;;7.70;76.60;;;;;;5058805;28;20203;-76
2021/12/04 10:34:17;;;;;;;14.77;6.77;;;8.10;76.30;;;;;;5071906;28;20647;-75
2021/12/04 10:36:45;;;;;;;13.17;7.83;;;8.20;76.30;;;;;;5079627;28;20863;-76
2021/12/04 10:39:15;;;;;;;12.83;7.53;;;8.20;76.10;;;;;;5072586;28;20220;-75
2021/12/04 10:41:46;;;;;;;17.53;7.13;;;8.40;76.30;;;;;;5071741;28;20205;-76
2021/12/04 10:44:18;;;;;;;17.03;8.23;;;8.40;76.30;;;;;;5072785;28;20196;-76
2021/12/04 10:46:54;;;;;;;14.90;7.80;;;8.60;76.00;;;;;;5062790;28;20193;-75
2021/12/04 10:49:36;;;;;;;14.80;6.80;;;8.60;75.70;;;;;;5071261;28;20201;-75
2021/12/04 10:52:10;;;;;;;13.30;7.27;;;8.70;75.20;;;;;;5067331;28;20225;-74
2021/12/04 10:54:41;;;;;;;17.50;8.03;;;8.80;75.10;;;;;;5068800;28;20225;-76
2021/12/04 10:57:50;;;;;;;15.03;7.83;;;8.80;73.90;;;;;;5068550;28;20330;-75
2021/12/04 11:00:23;;;;;;;15.07;7.23;;;8.80;73.50;;;;;;5059918;28;20192;-74
2021/12/04 11:02:56;;;;;;;12.93;7.20;;;8.90;73.30;;;;;;5068917;28;20270;-74
2021/12/04 11:20:09;;;;;;;17.90;8.80;;;9.10;73.10;;;;;;5060281;28;20706;-77
2021/12/04 11:22:54;;;;;;;17.40;8.27;;;9.00;73.30;;;;;;5056558;28;20194;-78
2021/12/04 11:28:24;;;;;;;17.53;7.70;;;9.10;74.30;;;;;;5048476;28;20204;-76
2021/12/04 11:36:36;;;;;;;19.73;8.57;;;9.10;73.10;;;;;;5051706;28;20194;-77
2021/12/04 11:39:22;;;;;;;16.30;8.10;;;9.20;73.50;;;;;;5063137;28;20190;-77
2021/12/04 11:42:06;;;;;;;15.77;8.13;;;9.20;73.70;;;;;;5069597;28;20187;-77
2021/12/04 11:44:49;;;;;;;19.60;9.30;;;9.20;73.70;;;;;;5075548;28;20202;-77
2021/12/04 11:47:17;;;;;;;13.57;7.93;;;9.20;73.40;;;;;;5067684;28;20190;-77
2021/12/04 11:49:49;;;;;;;18.53;9.53;;;9.30;73.40;;;;;;5068378;28;20217;-77
2021/12/04 11:52:21;;;;;;;21.60;9.57;;;9.30;73.30;;;;;;5067284;28;20350;-76
2021/12/04 11:54:56;;;;;;;20.27;9.00;;;9.30;73.00;;;;;;5064157;28;20190;-77
2021/12/04 11:57:30;;;;;;;17.77;9.07;;;9.30;73.10;;;;;;5049709;28;20179;-77
2021/12/04 12:00:14;;;;;;;17.67;9.13;;;9.40;73.20;;;;;;5051167;28;20198;-77
2021/12/04 12:02:42;;;;;;;15.73;8.43;;;9.50;73.10;;;;;;5052165;28;20183;-76
2021/12/04 12:05:17;;;;;;;14.67;7.50;;;9.50;73.10;;;;;;5058549;28;20187;-77
2021/12/04 12:07:56;;;;;;;14.87;8.10;;;9.60;72.50;;;;;;5059250;28;20248;-76
2021/12/04 12:10:26;;;;;;;15.87;7.63;;;9.60;72.20;;;;;;5062538;28;20190;-76
2021/12/04 12:13:04;;;;;;;16.73;9.00;;;9.70;72.10;;;;;;5054125;28;20294;-77
2021/12/04 12:15:38;;;;;;;15.30;7.83;;;9.70;72.40;;;;;;5052738;28;20206;-76
2021/12/04 12:18:12;;;;;;;17.00;7.83;;;9.70;73.30;;;;;;5067056;28;20198;-76
2021/12/04 12:20:44;;;;;;;11.27;6.50;;;9.70;72.10;;;;;;5056438;28;20199;-77
2021/12/04 12:23:17;;;;;;;13.27;6.17;;;9.70;71.70;;;;;;5064044;28;20190;-76
2021/12/04 12:25:59;;;;;;;15.57;7.10;;;9.70;71.30;;;;;;5067750;28;20191;-77
2021/12/04 12:37:19;;;;;;;19.00;8.43;;;9.90;71.60;;;;;;5060942;28;20201;-76
2021/12/04 12:39:57;;;;;;;14.90;8.10;;;9.90;71.60;;;;;;5058737;28;20195;-77
2021/12/04 12:42:31;;;;;;;15.10;7.83;;;9.90;71.50;;;;;;5064109;28;20214;-77
2021/12/04 12:45:28;;;;;;;14.33;7.40;;;10.00;71.50;;;;;;5063852;28;20193;-76
2021/12/04 12:48:03;;;;;;;15.73;8.07;;;10.00;71.30;;;;;;5045057;28;20207;-76
2021/12/04 12:50:37;;;;;;;17.47;7.90;;;10.00;71.30;;;;;;5049086;28;20620;-77
2021/12/04 12:53:09;;;;;;;16.00;8.27;;;10.00;71.30;;;;;;5065307;28;20220;-77
2021/12/04 12:55:45;;;;;;;15.70;8.60;;;10.00;71.30;;;;;;5060412;28;20202;-77
2021/12/04 12:58:18;;;;;;;18.67;9.43;;;10.00;71.30;;;;;;5059015;28;20197;-75
2021/12/04 13:12:02;;;;;;;15.83;7.80;;;10.10;70.50;;;;;;5053553;28;20206;-77
2021/12/04 13:14:36;;;;;;;15.60;8.17;;;10.10;70.50;;;;;;5061373;28;20728;-77
2021/12/04 13:17:13;;;;;;;14.67;8.13;;;10.20;70.40;;;;;;5072704;28;20205;-76
2021/12/04 13:19:48;;;;;;;14.33;7.43;;;10.20;70.20;;;;;;5060794;28;20182;-78
2021/12/04 13:22:19;;;;;;;17.67;8.53;;;10.10;70.30;;;;;;5059804;28;20189;-75
2021/12/04 13:24:50;;;;;;;15.20;8.30;;;10.20;70.50;;;;;;5066131;28;20183;-77
2021/12/04 13:29:49;;;;;;;17.40;8.37;;;10.20;70.70;;;;;;5059885;28;20255;-75
2021/12/04 13:32:26;;;;;;;13.37;7.70;;;10.20;70.10;;;;;;5059897;28;20202;-76
2021/12/04 13:35:02;;;;;;;19.80;8.77;;;10.20;70.40;;;;;;5057104;28;20186;-77
2021/12/04 13:37:31;;;;;;;18.13;8.37;;;10.10;70.50;;;;;;5063867;28;20801;-76
2021/12/04 13:40:05;;;;;;;19.20;7.87;;;10.20;70.60;;;;;;5054918;28;20198;-76
2021/12/04 13:42:34;;;;;;;13.73;7.93;;;10.20;70.60;;;;;;5049320;28;20285;-76
2021/12/04 13:45:04;;;;;;;18.83;8.50;;;10.20;70.50;;;;;;5061412;28;20206;-76
2021/12/04 13:47:32;;;;;;;13.37;6.53;;;10.20;70.50;;;;;;5065068;28;20199;-76
2021/12/04 13:52:45;;;;;;;12.83;6.50;;;10.20;70.60;;;;;;5058562;28;20214;-75
2021/12/04 13:55:15;;;;;;;12.43;7.07;;;10.20;70.60;;;;;;5060081;28;20198;-76
2021/12/04 13:57:43;;;;;;;11.77;6.60;;;10.20;70.50;;;;;;5065372;28;20911;-75
2021/12/04 14:00:15;;;;;;;14.57;7.67;;;10.20;70.50;;;;;;5064696;28;20226;-76
2021/12/04 14:02:44;;;;;;;14.30;6.80;;;10.20;70.10;;;;;;5065262;28;20652;-77
2021/12/04 14:05:18;;;;;;;16.50;7.87;;;10.20;70.30;;;;;;5062264;28;20217;-76
2021/12/04 14:07:52;;;;;;;11.70;6.80;;;10.20;70.00;;;;;;5065847;28;20167;-76
2021/12/04 14:10:22;;;;;;;13.63;8.03;;;10.20;70.10;;;;;;5064450;28;20580;-76
2021/12/04 14:12:51;;;;;;;16.40;9.53;;;10.30;69.20;;;;;;5063084;28;20205;-76
2021/12/04 14:15:22;;;;;;;13.63;7.67;;;10.20;69.10;;;;;;5063369;28;20187;-76
2021/12/04 14:17:51;;;;;;;15.60;8.00;;;10.20;69.20;;;;;;5063236;28;20195;-76
2021/12/04 14:20:23;;;;;;;16.77;8.90;;;10.20;69.40;;;;;;5064221;28;20194;-77
2021/12/04 14:22:54;;;;;;;17.17;8.67;;;10.10;69.50;;;;;;5065809;28;20243;-76
2021/12/04 14:25:24;;;;;;;17.13;8.50;;;10.10;69.50;;;;;;5065415;28;20191;-76
2021/12/04 14:27:54;;;;;;;18.57;9.40;;;10.10;69.60;;;;;;5066324;28;20918;-77
2021/12/04 14:30:25;;;;;;;13.53;7.87;;;10.10;69.60;;;;;;5064792;28;20716;-76
2021/12/04 14:32:55;;;;;;;16.97;9.13;;;10.10;70.50;;;;;;5066372;28;20210;-77
2021/12/04 14:35:32;;;;;;;21.87;9.37;;;10.00;69.50;;;;;;5070056;28;20201;-76
2021/12/04 14:38:03;;;;;;;15.33;8.60;;;10.00;69.70;;;;;;5072597;28;20190;-77
2021/12/04 14:40:36;;;;;;;13.20;7.27;;;10.00;69.60;;;;;;5066372;28;20255;-77
2021/12/04 14:43:09;;;;;;;16.50;7.73;;;10.00;69.80;;;;;;5066654;28;20201;-76
2021/12/04 14:45:39;;;;;;;15.60;7.80;;;9.90;69.90;;;;;;5068472;28;20187;-77
2021/12/04 14:48:09;;;;;;;14.70;7.37;;;9.90;69.70;;;;;;5069103;28;20187;-77
2021/12/04 14:50:44;;;;;;;14.03;7.00;;;9.90;69.90;;;;;;5068416;28;20236;-77
2021/12/04 14:53:16;;;;;;;14.47;7.13;;;9.90;69.70;;;;;;5078327;28;20345;-77
2021/12/04 14:55:47;;;;;;;13.13;7.17;;;9.90;69.90;;;;;;5067775;28;20647;-77
2021/12/04 14:58:18;;;;;;;15.20;7.73;;;9.90;70.00;;;;;;5068063;28;20834;-77
2021/12/04 15:00:52;;;;;;;13.87;7.20;;;9.90;70.00;;;;;;5068295;28;20193;-77
2021/12/04 15:03:29;;;;;;;18.43;7.63;;;9.90;69.90;;;;;;5071053;28;20189;-77
2021/12/04 15:06:05;;;;;;;15.53;8.33;;;9.80;69.70;;;;;;5071525;28;20279;-76
2021/12/04 15:08:35;;;;;;;15.83;9.07;;;9.80;69.90;;;;;;5068401;28;20265;-76
2021/12/04 15:11:07;;;;;;;16.30;8.27;;;9.80;70.00;;;;;;5067690;28;20182;-76
2021/12/04 15:13:41;;;;;;;16.17;8.33;;;9.80;70.30;;;;;;5066475;28;20205;-76
2021/12/04 15:16:14;;;;;;;16.77;8.83;;;9.80;70.30;;;;;;5060796;28;20206;-77
2021/12/04 15:18:45;;;;;;;15.70;8.00;;;9.80;70.30;;;;;;5068018;28;20707;-77
2021/12/04 15:21:39;;;;;;;14.03;8.47;;;9.70;70.40;;;;;;5060509;28;20822;-75
2021/12/04 15:24:13;;;;;;;15.27;7.47;;;9.80;70.60;;;;;;5067727;28;20644;-76
2021/12/04 15:26:43;;;;;;;17.90;9.50;;;9.70;70.70;;;;;;5066492;28;20437;-77
2021/12/04 15:29:18;;;;;;;22.63;11.07;;;9.70;70.80;;;;;;5065968;28;20191;-77
2021/12/04 15:31:48;;;;;;;20.87;11.27;;;9.80;70.90;;;;;;5068053;28;20309;-76
2021/12/04 15:34:17;;;;;;;22.53;10.80;;;9.70;71.10;;;;;;5068055;28;20694;-77
2021/12/04 15:36:50;;;;;;;19.87;10.60;;;9.70;71.10;;;;;;5068292;28;20191;-76
2021/12/04 15:39:37;;;;;;;25.37;12.60;;;9.70;71.10;;;;;;5060087;28;20183;-77
2021/12/04 15:47:45;;;;;;;21.60;10.43;;;9.70;71.60;;;;;;5064626;28;20190;-79